sensor_id;sensor_type;location;lat;lon;timestamp;P1;durP1;ratioP1;P2;durP2;ratioP2
83499;SDS011;73433;50.908;13.746;2024-01-07T00:00:10;27.93;;;15.87;;
83499;SDS011;73433;50.908;13.746;2024-01-07T00:02:38;27.00;;;16.10;;
83499;SDS011;73433;50.908;13.746;2024-01-07T00:05:07;27.63;;;16.10;;
83499;SDS011;73433;50.908;13.746;2024-01-07T00:07:34;30.07;;;16.80;;
83499;SDS011;73433;50.908;13.746;2024-01-07T00:10:02;32.47;;;15.20;;
83499;SDS011;73433;50.908;13.746;2024-01-07T00:12:30;30.73;;;16.33;;
83499;SDS011;73433;50.908;13.746;2024-01-07T00:14:57;27.40;;;16.50;;
83499;SDS011;73433;50.908;13.746;2024-01-07T00:17:25;31.50;;;16.60;;
83499;SDS011;73433;50.908;13.746;2024-01-07T00:19:52;31.97;;;18.30;;
83499;SDS011;73433;50.908;13.746;2024-01-07T00:22:19;33.90;;;17.70;;
83499;SDS011;73433;50.908;13.746;2024-01-07T00:24:46;33.90;;;17.37;;
83499;SDS011;73433;50.908;13.746;2024-01-07T00:27:14;29.93;;;15.13;;
83499;SDS011;73433;50.908;13.746;2024-01-07T00:29:41;29.70;;;17.50;;
83499;SDS011;73433;50.908;13.746;2024-01-07T00:32:08;40.70;;;18.03;;
83499;SDS011;73433;50.908;13.746;2024-01-07T00:34:35;35.00;;;18.30;;
83499;SDS011;73433;50.908;13.746;2024-01-07T00:37:03;28.10;;;16.90;;
83499;SDS011;73433;50.908;13.746;2024-01-07T00:39:30;29.83;;;15.87;;
83499;SDS011;73433;50.908;13.746;2024-01-07T00:41:58;33.07;;;16.47;;
83499;SDS011;73433;50.908;13.746;2024-01-07T00:44:25;33.57;;;17.37;;
83499;SDS011;73433;50.908;13.746;2024-01-07T00:46:52;30.43;;;15.97;;
83499;SDS011;73433;50.908;13.746;2024-01-07T00:49:19;25.33;;;14.10;;
83499;SDS011;73433;50.908;13.746;2024-01-07T00:51:47;27.20;;;14.97;;
83499;SDS011;73433;50.908;13.746;2024-01-07T00:54:14;32.80;;;14.90;;
83499;SDS011;73433;50.908;13.746;2024-01-07T00:56:41;28.37;;;16.57;;
83499;SDS011;73433;50.908;13.746;2024-01-07T00:59:08;28.10;;;16.07;;
83499;SDS011;73433;50.908;13.746;2024-01-07T01:01:36;26.80;;;16.07;;
83499;SDS011;73433;50.908;13.746;2024-01-07T01:04:03;29.57;;;15.33;;
83499;SDS011;73433;50.908;13.746;2024-01-07T01:06:31;31.90;;;16.50;;
83499;SDS011;73433;50.908;13.746;2024-01-07T01:08:58;26.93;;;15.63;;
83499;SDS011;73433;50.908;13.746;2024-01-07T01:11:25;24.23;;;14.50;;
83499;SDS011;73433;50.908;13.746;2024-01-07T01:13:52;27.17;;;15.63;;
83499;SDS011;73433;50.908;13.746;2024-01-07T01:16:19;27.97;;;14.40;;
83499;SDS011;73433;50.908;13.746;2024-01-07T01:18:50;29.20;;;15.90;;
83499;SDS011;73433;50.908;13.746;2024-01-07T01:21:18;25.63;;;13.57;;
83499;SDS011;73433;50.908;13.746;2024-01-07T01:23:45;21.77;;;14.10;;
83499;SDS011;73433;50.908;13.746;2024-01-07T01:26:14;26.87;;;14.60;;
83499;SDS011;73433;50.908;13.746;2024-01-07T01:28:41;25.07;;;14.43;;
83499;SDS011;73433;50.908;13.746;2024-01-07T01:31:12;24.17;;;14.67;;
83499;SDS011;73433;50.908;13.746;2024-01-07T01:33:40;23.07;;;13.60;;
83499;SDS011;73433;50.908;13.746;2024-01-07T01:36:08;25.40;;;13.97;;
83499;SDS011;73433;50.908;13.746;2024-01-07T01:38:35;21.37;;;14.17;;
83499;SDS011;73433;50.908;13.746;2024-01-07T01:41:03;22.23;;;13.67;;
83499;SDS011;73433;50.908;13.746;2024-01-07T01:43:30;25.47;;;13.97;;
83499;SDS011;73433;50.908;13.746;2024-01-07T01:45:58;22.70;;;13.33;;
83499;SDS011;73433;50.908;13.746;2024-01-07T01:48:26;24.97;;;13.83;;
83499;SDS011;73433;50.908;13.746;2024-01-07T01:50:55;19.10;;;12.80;;
83499;SDS011;73433;50.908;13.746;2024-01-07T01:53:25;23.57;;;13.33;;
83499;SDS011;73433;50.908;13.746;2024-01-07T01:55:53;24.60;;;14.53;;
83499;SDS011;73433;50.908;13.746;2024-01-07T01:58:23;22.00;;;13.30;;
83499;SDS011;73433;50.908;13.746;2024-01-07T02:00:52;23.63;;;13.40;;
83499;SDS011;73433;50.908;13.746;2024-01-07T02:03:19;22.47;;;13.23;;
83499;SDS011;73433;50.908;13.746;2024-01-07T02:05:48;22.03;;;12.93;;
83499;SDS011;73433;50.908;13.746;2024-01-07T02:08:17;19.87;;;12.07;;
83499;SDS011;73433;50.908;13.746;2024-01-07T02:10:45;22.47;;;13.00;;
83499;SDS011;73433;50.908;13.746;2024-01-07T02:13:13;21.77;;;12.83;;
83499;SDS011;73433;50.908;13.746;2024-01-07T02:15:40;22.80;;;13.13;;
83499;SDS011;73433;50.908;13.746;2024-01-07T02:18:07;17.83;;;12.60;;
83499;SDS011;73433;50.908;13.746;2024-01-07T02:20:35;24.47;;;13.77;;
83499;SDS011;73433;50.908;13.746;2024-01-07T02:23:03;25.87;;;13.97;;
83499;SDS011;73433;50.908;13.746;2024-01-07T02:25:36;24.30;;;14.33;;
83499;SDS011;73433;50.908;13.746;2024-01-07T02:28:04;27.10;;;13.77;;
83499;SDS011;73433;50.908;13.746;2024-01-07T02:30:32;34.07;;;14.07;;
83499;SDS011;73433;50.908;13.746;2024-01-07T02:33:01;22.90;;;13.10;;
83499;SDS011;73433;50.908;13.746;2024-01-07T02:35:30;22.67;;;13.50;;
83499;SDS011;73433;50.908;13.746;2024-01-07T02:37:58;29.93;;;15.00;;
83499;SDS011;73433;50.908;13.746;2024-01-07T02:40:25;23.30;;;13.53;;
83499;SDS011;73433;50.908;13.746;2024-01-07T02:42:52;26.43;;;14.17;;
83499;SDS011;73433;50.908;13.746;2024-01-07T02:45:19;21.87;;;13.97;;
83499;SDS011;73433;50.908;13.746;2024-01-07T02:47:47;26.40;;;13.93;;
83499;SDS011;73433;50.908;13.746;2024-01-07T02:50:14;32.37;;;14.70;;
83499;SDS011;73433;50.908;13.746;2024-01-07T02:52:42;25.13;;;14.43;;
83499;SDS011;73433;50.908;13.746;2024-01-07T02:55:09;22.47;;;14.10;;
83499;SDS011;73433;50.908;13.746;2024-01-07T02:57:37;20.63;;;13.33;;
83499;SDS011;73433;50.908;13.746;2024-01-07T03:00:04;22.57;;;13.13;;
83499;SDS011;73433;50.908;13.746;2024-01-07T03:02:32;24.90;;;13.53;;
83499;SDS011;73433;50.908;13.746;2024-01-07T03:05:00;24.80;;;13.47;;
83499;SDS011;73433;50.908;13.746;2024-01-07T03:07:27;21.87;;;12.50;;
83499;SDS011;73433;50.908;13.746;2024-01-07T03:09:54;23.87;;;13.80;;
83499;SDS011;73433;50.908;13.746;2024-01-07T03:12:22;22.27;;;12.83;;
83499;SDS011;73433;50.908;13.746;2024-01-07T03:14:49;21.87;;;12.60;;
83499;SDS011;73433;50.908;13.746;2024-01-07T03:17:16;19.07;;;12.20;;
83499;SDS011;73433;50.908;13.746;2024-01-07T03:19:44;23.70;;;13.70;;
83499;SDS011;73433;50.908;13.746;2024-01-07T03:22:11;20.57;;;13.27;;
83499;SDS011;73433;50.908;13.746;2024-01-07T03:24:39;20.60;;;13.13;;
83499;SDS011;73433;50.908;13.746;2024-01-07T03:27:07;23.37;;;12.87;;
83499;SDS011;73433;50.908;13.746;2024-01-07T03:29:35;17.57;;;12.07;;
83499;SDS011;73433;50.908;13.746;2024-01-07T03:32:02;21.37;;;11.77;;
83499;SDS011;73433;50.908;13.746;2024-01-07T03:34:30;17.80;;;10.60;;
83499;SDS011;73433;50.908;13.746;2024-01-07T03:36:57;20.97;;;11.77;;
83499;SDS011;73433;50.908;13.746;2024-01-07T03:39:24;21.77;;;11.57;;
83499;SDS011;73433;50.908;13.746;2024-01-07T03:41:55;14.80;;;11.30;;
83499;SDS011;73433;50.908;13.746;2024-01-07T03:44:23;17.20;;;11.20;;
83499;SDS011;73433;50.908;13.746;2024-01-07T03:46:50;30.60;;;11.90;;
83499;SDS011;73433;50.908;13.746;2024-01-07T03:49:17;20.13;;;11.70;;
83499;SDS011;73433;50.908;13.746;2024-01-07T03:51:45;19.93;;;11.80;;
83499;SDS011;73433;50.908;13.746;2024-01-07T03:54:12;28.70;;;12.67;;
83499;SDS011;73433;50.908;13.746;2024-01-07T03:56:39;19.57;;;11.23;;
83499;SDS011;73433;50.908;13.746;2024-01-07T03:59:06;21.53;;;11.50;;
83499;SDS011;73433;50.908;13.746;2024-01-07T04:01:34;20.40;;;11.30;;
83499;SDS011;73433;50.908;13.746;2024-01-07T04:04:01;19.73;;;10.77;;
83499;SDS011;73433;50.908;13.746;2024-01-07T04:06:29;17.17;;;10.07;;
83499;SDS011;73433;50.908;13.746;2024-01-07T04:08:56;20.17;;;11.10;;
83499;SDS011;73433;50.908;13.746;2024-01-07T04:11:24;22.77;;;11.10;;
83499;SDS011;73433;50.908;13.746;2024-01-07T04:13:51;16.90;;;11.30;;
83499;SDS011;73433;50.908;13.746;2024-01-07T04:16:18;15.50;;;9.97;;
83499;SDS011;73433;50.908;13.746;2024-01-07T04:18:47;20.40;;;10.90;;
83499;SDS011;73433;50.908;13.746;2024-01-07T04:21:20;16.63;;;10.90;;
83499;SDS011;73433;50.908;13.746;2024-01-07T04:23:48;14.40;;;10.10;;
83499;SDS011;73433;50.908;13.746;2024-01-07T04:26:15;17.73;;;12.40;;
83499;SDS011;73433;50.908;13.746;2024-01-07T04:28:42;19.80;;;12.13;;
83499;SDS011;73433;50.908;13.746;2024-01-07T04:31:10;25.33;;;11.57;;
83499;SDS011;73433;50.908;13.746;2024-01-07T04:33:37;19.10;;;12.60;;
83499;SDS011;73433;50.908;13.746;2024-01-07T04:36:05;18.90;;;13.20;;
83499;SDS011;73433;50.908;13.746;2024-01-07T04:38:32;16.80;;;10.90;;
83499;SDS011;73433;50.908;13.746;2024-01-07T04:40:59;20.27;;;12.30;;
83499;SDS011;73433;50.908;13.746;2024-01-07T04:43:27;23.37;;;12.30;;
83499;SDS011;73433;50.908;13.746;2024-01-07T04:45:55;21.60;;;11.53;;
83499;SDS011;73433;50.908;13.746;2024-01-07T04:48:22;18.40;;;12.40;;
83499;SDS011;73433;50.908;13.746;2024-01-07T04:50:49;17.47;;;11.90;;
83499;SDS011;73433;50.908;13.746;2024-01-07T04:53:17;19.93;;;12.80;;
83499;SDS011;73433;50.908;13.746;2024-01-07T04:55:44;19.63;;;11.80;;
83499;SDS011;73433;50.908;13.746;2024-01-07T04:58:11;19.30;;;12.70;;
83499;SDS011;73433;50.908;13.746;2024-01-07T05:00:38;23.10;;;12.07;;
83499;SDS011;73433;50.908;13.746;2024-01-07T05:03:06;22.07;;;13.33;;
83499;SDS011;73433;50.908;13.746;2024-01-07T05:05:33;22.90;;;13.53;;
83499;SDS011;73433;50.908;13.746;2024-01-07T05:08:03;19.67;;;11.27;;
83499;SDS011;73433;50.908;13.746;2024-01-07T05:10:30;17.90;;;11.33;;
83499;SDS011;73433;50.908;13.746;2024-01-07T05:12:57;18.40;;;10.90;;
83499;SDS011;73433;50.908;13.746;2024-01-07T05:15:32;22.90;;;13.00;;
83499;SDS011;73433;50.908;13.746;2024-01-07T05:18:00;20.00;;;11.70;;
83499;SDS011;73433;50.908;13.746;2024-01-07T05:20:28;16.30;;;9.87;;
83499;SDS011;73433;50.908;13.746;2024-01-07T05:22:55;12.70;;;8.40;;
83499;SDS011;73433;50.908;13.746;2024-01-07T05:25:22;15.80;;;10.97;;
83499;SDS011;73433;50.908;13.746;2024-01-07T05:27:50;20.60;;;10.97;;
83499;SDS011;73433;50.908;13.746;2024-01-07T05:30:17;16.23;;;10.27;;
83499;SDS011;73433;50.908;13.746;2024-01-07T05:32:45;14.27;;;9.80;;
83499;SDS011;73433;50.908;13.746;2024-01-07T05:35:12;17.43;;;11.03;;
83499;SDS011;73433;50.908;13.746;2024-01-07T05:37:39;19.90;;;11.17;;
83499;SDS011;73433;50.908;13.746;2024-01-07T05:40:07;16.60;;;11.03;;
83499;SDS011;73433;50.908;13.746;2024-01-07T05:42:34;22.00;;;12.00;;
83499;SDS011;73433;50.908;13.746;2024-01-07T05:45:01;13.37;;;11.03;;
83499;SDS011;73433;50.908;13.746;2024-01-07T05:47:29;19.50;;;11.33;;
83499;SDS011;73433;50.908;13.746;2024-01-07T05:49:57;16.23;;;11.53;;
83499;SDS011;73433;50.908;13.746;2024-01-07T05:52:24;27.63;;;12.20;;
83499;SDS011;73433;50.908;13.746;2024-01-07T05:54:51;16.63;;;11.40;;
83499;SDS011;73433;50.908;13.746;2024-01-07T05:57:18;29.27;;;11.50;;
83499;SDS011;73433;50.908;13.746;2024-01-07T05:59:46;15.43;;;10.93;;
83499;SDS011;73433;50.908;13.746;2024-01-07T06:02:19;18.43;;;11.43;;
83499;SDS011;73433;50.908;13.746;2024-01-07T06:04:48;16.33;;;10.77;;
83499;SDS011;73433;50.908;13.746;2024-01-07T06:07:15;16.43;;;11.20;;
83499;SDS011;73433;50.908;13.746;2024-01-07T06:09:42;22.40;;;12.30;;
83499;SDS011;73433;50.908;13.746;2024-01-07T06:12:10;16.20;;;10.43;;
83499;SDS011;73433;50.908;13.746;2024-01-07T06:14:37;17.90;;;10.90;;
83499;SDS011;73433;50.908;13.746;2024-01-07T06:17:04;16.17;;;11.07;;
83499;SDS011;73433;50.908;13.746;2024-01-07T06:19:31;13.27;;;10.60;;
83499;SDS011;73433;50.908;13.746;2024-01-07T06:21:59;17.43;;;11.13;;
83499;SDS011;73433;50.908;13.746;2024-01-07T06:24:26;21.63;;;12.10;;
83499;SDS011;73433;50.908;13.746;2024-01-07T06:26:53;18.50;;;10.53;;
83499;SDS011;73433;50.908;13.746;2024-01-07T06:29:20;15.33;;;10.27;;
83499;SDS011;73433;50.908;13.746;2024-01-07T06:31:48;15.53;;;11.13;;
83499;SDS011;73433;50.908;13.746;2024-01-07T06:34:16;14.47;;;10.20;;
83499;SDS011;73433;50.908;13.746;2024-01-07T06:36:43;21.03;;;10.70;;
83499;SDS011;73433;50.908;13.746;2024-01-07T06:39:10;10.97;;;9.10;;
83499;SDS011;73433;50.908;13.746;2024-01-07T06:41:38;13.30;;;9.97;;
83499;SDS011;73433;50.908;13.746;2024-01-07T06:44:05;15.90;;;9.67;;
83499;SDS011;73433;50.908;13.746;2024-01-07T06:46:32;12.37;;;8.93;;
83499;SDS011;73433;50.908;13.746;2024-01-07T06:49:00;11.97;;;9.67;;
83499;SDS011;73433;50.908;13.746;2024-01-07T06:51:28;15.10;;;10.60;;
83499;SDS011;73433;50.908;13.746;2024-01-07T06:53:56;14.00;;;10.20;;
83499;SDS011;73433;50.908;13.746;2024-01-07T06:56:23;13.40;;;9.83;;
83499;SDS011;73433;50.908;13.746;2024-01-07T06:58:51;12.50;;;9.60;;
83499;SDS011;73433;50.908;13.746;2024-01-07T07:01:21;11.93;;;10.00;;
83499;SDS011;73433;50.908;13.746;2024-01-07T07:03:52;12.67;;;9.23;;
83499;SDS011;73433;50.908;13.746;2024-01-07T07:06:19;14.80;;;9.70;;
83499;SDS011;73433;50.908;13.746;2024-01-07T07:08:46;11.13;;;9.60;;
83499;SDS011;73433;50.908;13.746;2024-01-07T07:11:14;13.10;;;9.17;;
83499;SDS011;73433;50.908;13.746;2024-01-07T07:13:41;15.87;;;9.10;;
83499;SDS011;73433;50.908;13.746;2024-01-07T07:16:08;9.07;;;8.17;;
83499;SDS011;73433;50.908;13.746;2024-01-07T07:18:35;14.73;;;8.50;;
83499;SDS011;73433;50.908;13.746;2024-01-07T07:21:02;10.40;;;8.60;;
83499;SDS011;73433;50.908;13.746;2024-01-07T07:23:30;10.93;;;8.43;;
83499;SDS011;73433;50.908;13.746;2024-01-07T07:25:57;9.27;;;6.73;;
83499;SDS011;73433;50.908;13.746;2024-01-07T07:28:24;9.53;;;7.37;;
83499;SDS011;73433;50.908;13.746;2024-01-07T07:30:52;10.10;;;7.90;;
83499;SDS011;73433;50.908;13.746;2024-01-07T07:33:20;8.47;;;6.83;;
83499;SDS011;73433;50.908;13.746;2024-01-07T07:35:47;8.23;;;7.43;;
83499;SDS011;73433;50.908;13.746;2024-01-07T07:38:15;9.13;;;8.17;;
83499;SDS011;73433;50.908;13.746;2024-01-07T07:40:42;8.27;;;7.37;;
83499;SDS011;73433;50.908;13.746;2024-01-07T07:43:11;10.30;;;7.57;;
83499;SDS011;73433;50.908;13.746;2024-01-07T07:45:39;9.57;;;7.90;;
83499;SDS011;73433;50.908;13.746;2024-01-07T07:48:06;10.87;;;7.63;;
83499;SDS011;73433;50.908;13.746;2024-01-07T07:50:33;7.53;;;6.80;;
83499;SDS011;73433;50.908;13.746;2024-01-07T07:53:01;8.00;;;7.30;;
83499;SDS011;73433;50.908;13.746;2024-01-07T07:55:29;7.03;;;6.43;;
83499;SDS011;73433;50.908;13.746;2024-01-07T07:57:56;7.20;;;6.50;;
83499;SDS011;73433;50.908;13.746;2024-01-07T08:00:25;7.10;;;6.40;;
83499;SDS011;73433;50.908;13.746;2024-01-07T08:02:52;7.60;;;6.73;;
83499;SDS011;73433;50.908;13.746;2024-01-07T08:05:20;7.07;;;6.57;;
83499;SDS011;73433;50.908;13.746;2024-01-07T08:07:47;6.63;;;6.03;;
83499;SDS011;73433;50.908;13.746;2024-01-07T08:10:14;6.93;;;6.40;;
83499;SDS011;73433;50.908;13.746;2024-01-07T08:12:42;7.97;;;7.00;;
83499;SDS011;73433;50.908;13.746;2024-01-07T08:15:10;11.53;;;7.33;;
83499;SDS011;73433;50.908;13.746;2024-01-07T08:17:37;7.33;;;6.70;;
83499;SDS011;73433;50.908;13.746;2024-01-07T08:20:05;7.33;;;6.73;;
83499;SDS011;73433;50.908;13.746;2024-01-07T08:22:33;7.53;;;6.83;;
83499;SDS011;73433;50.908;13.746;2024-01-07T08:25:00;7.73;;;7.10;;
83499;SDS011;73433;50.908;13.746;2024-01-07T08:27:27;8.37;;;7.07;;
83499;SDS011;73433;50.908;13.746;2024-01-07T08:29:55;8.30;;;7.10;;
83499;SDS011;73433;50.908;13.746;2024-01-07T08:32:23;6.47;;;6.10;;
83499;SDS011;73433;50.908;13.746;2024-01-07T08:34:50;8.50;;;6.90;;
83499;SDS011;73433;50.908;13.746;2024-01-07T08:37:17;7.23;;;6.30;;
83499;SDS011;73433;50.908;13.746;2024-01-07T08:39:45;8.70;;;7.10;;
83499;SDS011;73433;50.908;13.746;2024-01-07T08:42:12;6.50;;;6.00;;
83499;SDS011;73433;50.908;13.746;2024-01-07T08:44:40;6.90;;;5.90;;
83499;SDS011;73433;50.908;13.746;2024-01-07T08:47:07;6.80;;;6.23;;
83499;SDS011;73433;50.908;13.746;2024-01-07T08:49:34;6.00;;;5.60;;
83499;SDS011;73433;50.908;13.746;2024-01-07T08:52:02;6.87;;;6.17;;
83499;SDS011;73433;50.908;13.746;2024-01-07T08:54:30;6.00;;;5.40;;
83499;SDS011;73433;50.908;13.746;2024-01-07T08:56:57;5.70;;;5.30;;
83499;SDS011;73433;50.908;13.746;2024-01-07T08:59:24;5.93;;;5.57;;
83499;SDS011;73433;50.908;13.746;2024-01-07T09:01:51;5.87;;;5.37;;
83499;SDS011;73433;50.908;13.746;2024-01-07T09:04:19;5.07;;;4.87;;
83499;SDS011;73433;50.908;13.746;2024-01-07T09:06:46;5.17;;;4.97;;
83499;SDS011;73433;50.908;13.746;2024-01-07T09:09:13;4.83;;;4.53;;
83499;SDS011;73433;50.908;13.746;2024-01-07T09:11:40;4.83;;;4.63;;
83499;SDS011;73433;50.908;13.746;2024-01-07T09:14:08;12.07;;;5.23;;
83499;SDS011;73433;50.908;13.746;2024-01-07T09:16:35;7.33;;;6.70;;
83499;SDS011;73433;50.908;13.746;2024-01-07T09:19:02;5.23;;;4.93;;
83499;SDS011;73433;50.908;13.746;2024-01-07T09:21:30;6.13;;;5.73;;
83499;SDS011;73433;50.908;13.746;2024-01-07T09:23:57;5.03;;;4.73;;
83499;SDS011;73433;50.908;13.746;2024-01-07T09:26:24;5.83;;;5.53;;
83499;SDS011;73433;50.908;13.746;2024-01-07T09:28:51;6.47;;;5.97;;
83499;SDS011;73433;50.908;13.746;2024-01-07T09:31:18;4.63;;;4.43;;
83499;SDS011;73433;50.908;13.746;2024-01-07T09:33:46;5.13;;;4.80;;
83499;SDS011;73433;50.908;13.746;2024-01-07T09:36:13;4.70;;;4.43;;
83499;SDS011;73433;50.908;13.746;2024-01-07T09:38:55;4.60;;;4.40;;
83499;SDS011;73433;50.908;13.746;2024-01-07T09:41:22;4.93;;;4.63;;
83499;SDS011;73433;50.908;13.746;2024-01-07T09:43:51;5.33;;;4.10;;
83499;SDS011;73433;50.908;13.746;2024-01-07T09:46:21;3.97;;;3.77;;
83499;SDS011;73433;50.908;13.746;2024-01-07T09:48:49;5.03;;;4.57;;
83499;SDS011;73433;50.908;13.746;2024-01-07T09:51:18;4.20;;;4.00;;
83499;SDS011;73433;50.908;13.746;2024-01-07T09:53:50;4.27;;;4.07;;
83499;SDS011;73433;50.908;13.746;2024-01-07T09:56:24;3.77;;;3.50;;
83499;SDS011;73433;50.908;13.746;2024-01-07T09:58:55;3.90;;;3.80;;
83499;SDS011;73433;50.908;13.746;2024-01-07T10:01:22;3.43;;;3.33;;
83499;SDS011;73433;50.908;13.746;2024-01-07T10:03:53;26.43;;;4.50;;
83499;SDS011;73433;50.908;13.746;2024-01-07T10:06:20;4.13;;;3.97;;
83499;SDS011;73433;50.908;13.746;2024-01-07T10:08:47;3.87;;;3.67;;
83499;SDS011;73433;50.908;13.746;2024-01-07T10:11:15;3.93;;;3.73;;
83499;SDS011;73433;50.908;13.746;2024-01-07T10:13:44;9.10;;;4.30;;
83499;SDS011;73433;50.908;13.746;2024-01-07T10:16:14;4.37;;;4.07;;
83499;SDS011;73433;50.908;13.746;2024-01-07T10:18:41;4.43;;;4.23;;
83499;SDS011;73433;50.908;13.746;2024-01-07T10:21:09;3.83;;;3.73;;
83499;SDS011;73433;50.908;13.746;2024-01-07T10:23:36;4.83;;;4.43;;
83499;SDS011;73433;50.908;13.746;2024-01-07T10:26:04;4.10;;;3.90;;
83499;SDS011;73433;50.908;13.746;2024-01-07T10:28:46;3.80;;;3.70;;
83499;SDS011;73433;50.908;13.746;2024-01-07T10:31:13;5.23;;;4.67;;
83499;SDS011;73433;50.908;13.746;2024-01-07T10:33:41;3.87;;;3.67;;
83499;SDS011;73433;50.908;13.746;2024-01-07T10:36:08;4.90;;;4.70;;
83499;SDS011;73433;50.908;13.746;2024-01-07T10:38:36;4.00;;;3.60;;
83499;SDS011;73433;50.908;13.746;2024-01-07T10:41:08;4.90;;;4.60;;
83499;SDS011;73433;50.908;13.746;2024-01-07T10:43:38;4.60;;;4.07;;
83499;SDS011;73433;50.908;13.746;2024-01-07T10:46:07;4.50;;;4.30;;
83499;SDS011;73433;50.908;13.746;2024-01-07T10:48:38;3.40;;;3.30;;
83499;SDS011;73433;50.908;13.746;2024-01-07T10:51:09;3.90;;;3.70;;
83499;SDS011;73433;50.908;13.746;2024-01-07T10:53:37;4.00;;;3.80;;
83499;SDS011;73433;50.908;13.746;2024-01-07T10:56:10;4.73;;;4.43;;
83499;SDS011;73433;50.908;13.746;2024-01-07T10:58:38;4.83;;;4.63;;
83499;SDS011;73433;50.908;13.746;2024-01-07T11:01:08;4.30;;;4.10;;
83499;SDS011;73433;50.908;13.746;2024-01-07T11:06:37;3.80;;;3.60;;
83499;SDS011;73433;50.908;13.746;2024-01-07T11:12:25;4.43;;;4.13;;
83499;SDS011;73433;50.908;13.746;2024-01-07T11:14:53;4.00;;;3.67;;
83499;SDS011;73433;50.908;13.746;2024-01-07T11:17:40;3.67;;;3.57;;
83499;SDS011;73433;50.908;13.746;2024-01-07T11:20:19;3.37;;;3.27;;
83499;SDS011;73433;50.908;13.746;2024-01-07T11:22:48;3.50;;;3.40;;
83499;SDS011;73433;50.908;13.746;2024-01-07T11:25:28;3.70;;;3.50;;
83499;SDS011;73433;50.908;13.746;2024-01-07T11:27:58;3.50;;;3.30;;
83499;SDS011;73433;50.908;13.746;2024-01-07T11:30:27;4.00;;;3.90;;
83499;SDS011;73433;50.908;13.746;2024-01-07T11:32:56;3.87;;;3.67;;
83499;SDS011;73433;50.908;13.746;2024-01-07T11:38:24;3.67;;;3.37;;
83499;SDS011;73433;50.908;13.746;2024-01-07T11:40:52;3.33;;;3.23;;
83499;SDS011;73433;50.908;13.746;2024-01-07T11:43:21;3.10;;;3.00;;
83499;SDS011;73433;50.908;13.746;2024-01-07T11:45:49;3.97;;;3.67;;
83499;SDS011;73433;50.908;13.746;2024-01-07T11:48:18;3.00;;;2.90;;
83499;SDS011;73433;50.908;13.746;2024-01-07T11:50:46;3.77;;;3.60;;
83499;SDS011;73433;50.908;13.746;2024-01-07T11:53:15;3.77;;;3.67;;
83499;SDS011;73433;50.908;13.746;2024-01-07T11:55:44;3.17;;;3.07;;
83499;SDS011;73433;50.908;13.746;2024-01-07T11:58:11;3.13;;;2.87;;
83499;SDS011;73433;50.908;13.746;2024-01-07T12:00:39;2.73;;;2.63;;
83499;SDS011;73433;50.908;13.746;2024-01-07T12:03:07;2.87;;;2.77;;
83499;SDS011;73433;50.908;13.746;2024-01-07T12:05:35;3.40;;;3.30;;
83499;SDS011;73433;50.908;13.746;2024-01-07T12:08:02;3.00;;;2.90;;
83499;SDS011;73433;50.908;13.746;2024-01-07T12:10:29;3.00;;;2.90;;
83499;SDS011;73433;50.908;13.746;2024-01-07T12:12:58;8.13;;;3.20;;
83499;SDS011;73433;50.908;13.746;2024-01-07T12:15:25;2.80;;;2.70;;
83499;SDS011;73433;50.908;13.746;2024-01-07T12:17:56;3.10;;;2.80;;
83499;SDS011;73433;50.908;13.746;2024-01-07T12:20:25;2.83;;;2.73;;
83499;SDS011;73433;50.908;13.746;2024-01-07T12:22:57;2.60;;;2.50;;
83499;SDS011;73433;50.908;13.746;2024-01-07T12:25:32;2.67;;;2.57;;
83499;SDS011;73433;50.908;13.746;2024-01-07T12:27:59;3.57;;;3.27;;
83499;SDS011;73433;50.908;13.746;2024-01-07T12:30:27;2.53;;;2.43;;
83499;SDS011;73433;50.908;13.746;2024-01-07T12:32:55;2.70;;;2.60;;
83499;SDS011;73433;50.908;13.746;2024-01-07T12:35:25;1.93;;;1.83;;
83499;SDS011;73433;50.908;13.746;2024-01-07T12:37:53;2.47;;;2.37;;
83499;SDS011;73433;50.908;13.746;2024-01-07T12:40:21;2.40;;;2.30;;
83499;SDS011;73433;50.908;13.746;2024-01-07T12:42:48;2.30;;;2.20;;
83499;SDS011;73433;50.908;13.746;2024-01-07T12:45:16;2.50;;;2.40;;
83499;SDS011;73433;50.908;13.746;2024-01-07T12:47:43;5.80;;;5.30;;
83499;SDS011;73433;50.908;13.746;2024-01-07T12:50:12;3.90;;;3.60;;
83499;SDS011;73433;50.908;13.746;2024-01-07T12:52:40;9.03;;;5.37;;
83499;SDS011;73433;50.908;13.746;2024-01-07T12:55:07;2.70;;;2.60;;
83499;SDS011;73433;50.908;13.746;2024-01-07T12:57:37;15.63;;;7.23;;
83499;SDS011;73433;50.908;13.746;2024-01-07T13:00:05;4.20;;;3.90;;
83499;SDS011;73433;50.908;13.746;2024-01-07T13:02:33;22.93;;;12.90;;
83499;SDS011;73433;50.908;13.746;2024-01-07T13:05:01;3.43;;;3.30;;
83499;SDS011;73433;50.908;13.746;2024-01-07T13:07:30;4.80;;;4.60;;
83499;SDS011;73433;50.908;13.746;2024-01-07T13:09:57;3.30;;;3.20;;
83499;SDS011;73433;50.908;13.746;2024-01-07T13:12:25;3.20;;;3.10;;
83499;SDS011;73433;50.908;13.746;2024-01-07T13:15:09;4.53;;;4.27;;
83499;SDS011;73433;50.908;13.746;2024-01-07T13:17:37;2.30;;;2.20;;
83499;SDS011;73433;50.908;13.746;2024-01-07T13:20:04;3.13;;;2.77;;
83499;SDS011;73433;50.908;13.746;2024-01-07T13:22:33;3.90;;;3.60;;
83499;SDS011;73433;50.908;13.746;2024-01-07T13:25:01;2.77;;;2.67;;
83499;SDS011;73433;50.908;13.746;2024-01-07T13:27:28;2.90;;;2.70;;
83499;SDS011;73433;50.908;13.746;2024-01-07T13:29:59;5.97;;;5.30;;
83499;SDS011;73433;50.908;13.746;2024-01-07T13:32:26;3.20;;;3.10;;
83499;SDS011;73433;50.908;13.746;2024-01-07T13:34:54;3.30;;;3.20;;
83499;SDS011;73433;50.908;13.746;2024-01-07T13:37:21;2.33;;;2.23;;
83499;SDS011;73433;50.908;13.746;2024-01-07T13:39:48;3.60;;;3.40;;
83499;SDS011;73433;50.908;13.746;2024-01-07T13:42:16;3.00;;;2.90;;
83499;SDS011;73433;50.908;13.746;2024-01-07T13:44:44;3.70;;;3.50;;
83499;SDS011;73433;50.908;13.746;2024-01-07T13:47:13;1.70;;;1.70;;
83499;SDS011;73433;50.908;13.746;2024-01-07T13:49:41;2.87;;;2.77;;
83499;SDS011;73433;50.908;13.746;2024-01-07T13:52:09;2.80;;;2.60;;
83499;SDS011;73433;50.908;13.746;2024-01-07T13:54:39;1.73;;;1.63;;
83499;SDS011;73433;50.908;13.746;2024-01-07T13:57:06;1.87;;;1.77;;
83499;SDS011;73433;50.908;13.746;2024-01-07T13:59:33;5.80;;;4.60;;
83499;SDS011;73433;50.908;13.746;2024-01-07T14:02:01;1.97;;;1.87;;
83499;SDS011;73433;50.908;13.746;2024-01-07T14:04:29;2.53;;;2.43;;
83499;SDS011;73433;50.908;13.746;2024-01-07T14:06:58;33.37;;;15.20;;
83499;SDS011;73433;50.908;13.746;2024-01-07T14:09:26;5.27;;;4.87;;
83499;SDS011;73433;50.908;13.746;2024-01-07T14:11:57;3.40;;;3.10;;
83499;SDS011;73433;50.908;13.746;2024-01-07T14:14:25;2.87;;;2.77;;
83499;SDS011;73433;50.908;13.746;2024-01-07T14:16:52;1.67;;;1.63;;
83499;SDS011;73433;50.908;13.746;2024-01-07T14:19:19;2.17;;;2.07;;
83499;SDS011;73433;50.908;13.746;2024-01-07T14:21:48;2.90;;;2.13;;
83499;SDS011;73433;50.908;13.746;2024-01-07T14:24:18;1.57;;;1.50;;
83499;SDS011;73433;50.908;13.746;2024-01-07T14:26:46;2.80;;;2.33;;
83499;SDS011;73433;50.908;13.746;2024-01-07T14:29:13;2.23;;;2.13;;
83499;SDS011;73433;50.908;13.746;2024-01-07T14:31:44;2.40;;;2.30;;
83499;SDS011;73433;50.908;13.746;2024-01-07T14:34:12;2.10;;;2.00;;